createdAt,value
2022-11-16T00:02:10.677Z,89.52
2022-11-16T00:05:08.218Z,89.38
2022-11-16T00:08:05.781Z,89.42
2022-11-16T00:11:05.497Z,89.49
2022-11-16T00:14:03.233Z,89.55
2022-11-16T00:17:01.707Z,89.46
2022-11-16T00:19:59.244Z,89.36
2022-11-16T00:22:56.748Z,89.48
2022-11-16T00:25:54.283Z,89.45
2022-11-16T00:28:51.849Z,89.30
2022-11-16T00:31:49.433Z,89.31
2022-11-16T00:34:47.129Z,89.50
2022-11-16T00:37:44.645Z,89.65
2022-11-16T00:40:42.163Z,89.76
2022-11-16T00:43:39.697Z,89.85
2022-11-16T00:46:37.285Z,89.89
2022-11-16T00:49:34.840Z,89.88
2022-11-16T00:52:32.385Z,90.04
2022-11-16T00:55:29.934Z,90.14
2022-11-16T00:58:29.066Z,90.13
2022-11-16T01:01:27.114Z,90.00
2022-11-16T01:04:24.655Z,90.05
2022-11-16T01:07:22.163Z,90.19
2022-11-16T01:10:19.663Z,90.26
2022-11-16T01:13:17.147Z,90.27
2022-11-16T01:16:14.627Z,90.27
2022-11-16T01:19:12.067Z,90.31
2022-11-16T01:22:09.521Z,90.35
2022-11-16T01:25:07.017Z,90.40
2022-11-16T01:28:04.490Z,90.48
2022-11-16T01:31:01.969Z,90.47
2022-11-16T01:33:59.701Z,90.41
2022-11-16T01:36:57.188Z,90.34
2022-11-16T01:39:54.646Z,90.31
2022-11-16T01:42:52.151Z,90.32
2022-11-16T01:45:49.714Z,90.19
2022-11-16T01:48:47.287Z,90.15
2022-11-16T01:51:44.777Z,90.15
2022-11-16T01:54:42.229Z,90.14
2022-11-16T01:57:39.986Z,90.19
2022-11-16T02:00:37.431Z,90.22
2022-11-16T02:03:34.894Z,90.16
2022-11-16T02:06:32.726Z,90.10
2022-11-16T02:09:47.865Z,90.03
2022-11-16T02:12:45.325Z,90.08
2022-11-16T02:15:42.762Z,90.01
2022-11-16T02:18:40.246Z,89.98
2022-11-16T02:21:37.713Z,89.94
2022-11-16T02:24:35.168Z,89.91
2022-11-16T02:27:32.612Z,89.97
2022-11-16T02:30:30.041Z,89.94
2022-11-16T02:33:27.484Z,89.99
2022-11-16T02:36:24.902Z,90.06
2022-11-16T02:39:22.351Z,90.07
2022-11-16T02:42:19.804Z,90.14
2022-11-16T02:45:17.231Z,90.15
2022-11-16T02:48:14.685Z,90.28
2022-11-16T02:51:12.110Z,90.31
2022-11-16T02:54:11.778Z,90.34
2022-11-16T02:57:09.229Z,90.36
2022-11-16T03:00:06.682Z,90.30
2022-11-16T03:03:04.150Z,90.40
2022-11-16T03:06:01.597Z,90.38
2022-11-16T03:08:59.036Z,90.38
2022-11-16T03:12:04.700Z,90.41
2022-11-16T03:15:02.176Z,90.50
2022-11-16T03:17:59.630Z,90.58
2022-11-16T03:20:57.093Z,90.52
2022-11-16T03:23:54.560Z,90.50
2022-11-16T03:26:52.005Z,90.50
2022-11-16T03:29:49.471Z,90.55
2022-11-16T03:32:46.921Z,90.67
2022-11-16T03:35:44.381Z,90.67
2022-11-16T03:38:41.836Z,90.65
2022-11-16T03:41:39.289Z,90.68
2022-11-16T03:44:36.757Z,90.80
2022-11-16T03:47:34.197Z,90.85
2022-11-16T03:50:31.658Z,90.90
2022-11-16T03:53:29.149Z,91.00
2022-11-16T03:56:26.601Z,91.05
2022-11-16T03:59:24.051Z,91.09
2022-11-16T04:02:21.538Z,91.01
2022-11-16T04:05:36.815Z,91.11
2022-11-16T04:08:52.072Z,91.19
2022-11-16T04:12:07.538Z,91.12
2022-11-16T04:15:22.853Z,91.21
2022-11-16T04:18:38.413Z,91.15
2022-11-16T04:21:53.745Z,91.11
2022-11-16T04:24:51.197Z,91.19
2022-11-16T04:28:06.447Z,91.29
2022-11-16T04:31:21.675Z,91.23
2022-11-16T04:34:36.877Z,91.30
2022-11-16T04:37:49.926Z,91.20
2022-11-16T04:40:48.085Z,91.39
2022-11-16T04:43:45.535Z,91.46
2022-11-16T04:47:00.566Z,91.51
2022-11-16T04:49:58.021Z,91.53
2022-11-16T04:52:55.500Z,91.39
2022-11-16T04:55:56.696Z,91.30
2022-11-16T04:58:59.350Z,91.34
2022-11-16T05:02:09.209Z,91.60
2022-11-16T05:05:06.696Z,91.69
2022-11-16T05:08:04.122Z,91.61
2022-11-16T05:11:01.554Z,91.63
2022-11-16T05:13:59.008Z,91.69
2022-11-16T05:16:56.478Z,91.86
2022-11-16T05:20:11.698Z,91.89
2022-11-16T05:23:29.800Z,91.84
2022-11-16T05:26:27.288Z,91.91
2022-11-16T05:29:24.719Z,91.97
2022-11-16T05:32:22.210Z,92.03
2022-11-16T05:35:19.665Z,92.15
2022-11-16T05:38:17.121Z,92.21
2022-11-16T05:41:14.601Z,92.15
2022-11-16T05:44:12.044Z,92.14
2022-11-16T05:47:09.507Z,92.07
2022-11-16T05:50:06.956Z,92.00
2022-11-16T05:53:04.505Z,91.92
2022-11-16T05:56:02.038Z,91.74
2022-11-16T05:58:59.486Z,91.72
2022-11-16T06:01:57.956Z,91.70
2022-11-16T06:04:55.423Z,91.66
2022-11-16T06:07:52.889Z,91.71
2022-11-16T06:10:50.366Z,91.60
2022-11-16T06:13:47.814Z,91.60
2022-11-16T06:16:45.264Z,91.50
2022-11-16T06:19:42.722Z,91.52
2022-11-16T06:22:40.171Z,91.60
2022-11-16T06:25:37.632Z,91.43
2022-11-16T06:28:35.364Z,91.31
2022-11-16T06:31:33.156Z,91.19
2022-11-16T06:34:30.612Z,90.97
2022-11-16T06:37:28.072Z,90.90
2022-11-16T06:40:25.523Z,90.81
2022-11-16T06:43:22.977Z,90.93
2022-11-16T06:46:20.422Z,91.03
2022-11-16T06:49:17.867Z,90.97
2022-11-16T06:52:15.414Z,90.92
2022-11-16T06:55:12.872Z,90.91
2022-11-16T06:58:10.343Z,90.85
2022-11-16T07:01:07.868Z,90.79
2022-11-16T07:04:05.325Z,90.68
2022-11-16T07:07:02.839Z,90.63
2022-11-16T07:10:00.386Z,90.58
2022-11-16T07:12:57.862Z,90.51
2022-11-16T07:15:55.302Z,90.38
2022-11-16T07:18:52.836Z,90.35
2022-11-16T07:21:50.286Z,90.37
2022-11-16T07:24:47.754Z,90.48
2022-11-16T07:27:45.227Z,90.40
2022-11-16T07:30:42.659Z,90.42
2022-11-16T07:33:40.083Z,90.45
2022-11-16T07:36:37.534Z,90.35
2022-11-16T07:39:34.970Z,90.19
2022-11-16T07:42:32.403Z,90.10
2022-11-16T07:45:29.890Z,89.92
2022-11-16T07:48:27.340Z,89.83
2022-11-16T07:51:24.797Z,89.78
2022-11-16T07:54:22.260Z,89.67
2022-11-16T07:57:19.692Z,89.56
2022-11-16T08:00:17.150Z,89.47
2022-11-16T08:03:14.600Z,89.40
2022-11-16T08:06:12.073Z,89.31
2022-11-16T08:09:09.532Z,89.25
2022-11-16T08:12:07.072Z,89.19
2022-11-16T08:15:04.539Z,89.20
2022-11-16T08:18:02.010Z,89.33
2022-11-16T08:20:59.514Z,89.25
2022-11-16T08:23:58.741Z,89.29
2022-11-16T08:26:58.893Z,89.16
2022-11-16T08:29:56.786Z,89.12
2022-11-16T08:32:54.223Z,89.06
2022-11-16T08:35:51.668Z,89.09
2022-11-16T08:38:49.107Z,89.08
2022-11-16T08:41:46.587Z,89.06
2022-11-16T08:44:44.024Z,89.09
2022-11-16T08:47:41.493Z,89.06
2022-11-16T08:51:09.922Z,89.09
2022-11-16T08:53:56.378Z,89.00
2022-11-16T08:56:53.846Z,88.99
2022-11-16T08:59:51.290Z,88.78
2022-11-16T09:02:48.745Z,88.63
2022-11-16T09:05:47.057Z,88.54
2022-11-16T09:08:44.503Z,88.53
2022-11-16T09:11:41.988Z,88.44
2022-11-16T09:14:39.655Z,88.27
2022-11-16T09:17:37.137Z,88.25
2022-11-16T09:20:34.610Z,88.22
2022-11-16T09:23:32.056Z,88.18
2022-11-16T09:26:30.372Z,87.93
2022-11-16T09:29:28.831Z,87.61
2022-11-16T09:32:26.299Z,87.62
2022-11-16T09:35:24.188Z,87.58
2022-11-16T09:38:30.552Z,87.56
2022-11-16T09:41:37.928Z,87.43
2022-11-16T09:44:35.792Z,87.54
2022-11-16T09:47:33.244Z,87.57
2022-11-16T09:50:30.683Z,87.65
2022-11-16T09:53:28.144Z,87.56
2022-11-16T09:56:25.982Z,87.45
2022-11-16T09:59:23.710Z,87.22
2022-11-16T10:02:21.457Z,87.33
2022-11-16T10:05:18.911Z,87.44
2022-11-16T10:08:16.394Z,87.47
2022-11-16T10:11:13.855Z,87.42
2022-11-16T10:14:11.295Z,87.51
2022-11-16T10:17:08.746Z,87.60
2022-11-16T10:20:06.419Z,87.62
2022-11-16T10:23:04.282Z,87.59
2022-11-16T10:26:01.879Z,87.58
2022-11-16T10:28:59.361Z,87.60
2022-11-16T10:31:56.814Z,87.49
2022-11-16T10:34:54.301Z,87.50
2022-11-16T10:37:51.792Z,87.56
2022-11-16T10:40:49.261Z,87.65
2022-11-16T10:43:46.745Z,87.69
2022-11-16T10:46:44.975Z,87.67
2022-11-16T10:49:42.670Z,87.59
2022-11-16T10:52:40.136Z,87.49
2022-11-16T10:55:37.597Z,87.34
2022-11-16T10:58:35.085Z,87.36
2022-11-16T11:01:32.512Z,87.38
2022-11-16T11:04:30.143Z,87.32
2022-11-16T11:07:27.722Z,87.20
2022-11-16T11:10:25.288Z,87.13
2022-11-16T11:13:22.725Z,87.12
2022-11-16T11:16:20.681Z,87.03
2022-11-16T11:19:18.193Z,86.78
2022-11-16T11:22:15.910Z,86.71
2022-11-16T11:25:13.494Z,86.60
2022-11-16T11:28:10.961Z,86.71
2022-11-16T11:31:08.434Z,86.61
2022-11-16T11:34:05.869Z,86.50
2022-11-16T11:37:03.495Z,86.47
2022-11-16T11:40:00.962Z,86.55
2022-11-16T11:42:58.710Z,86.35
2022-11-16T11:45:56.169Z,86.21
2022-11-16T11:48:53.681Z,86.19
2022-11-16T11:51:51.176Z,85.98
2022-11-16T11:54:48.768Z,85.50
2022-11-16T11:57:46.240Z,85.48
2022-11-16T12:00:43.697Z,85.49
2022-11-16T12:03:41.169Z,85.14
2022-11-16T12:06:43.631Z,84.79
2022-11-16T12:09:41.950Z,84.51
2022-11-16T12:12:39.439Z,84.38
2022-11-16T12:15:36.907Z,84.07
2022-11-16T12:18:34.353Z,83.98
2022-11-16T12:21:31.825Z,84.05
2022-11-16T12:24:29.265Z,84.18
2022-11-16T12:27:27.467Z,84.22
2022-11-16T12:30:24.935Z,84.08
2022-11-16T12:33:23.807Z,84.30
2022-11-16T12:36:21.268Z,84.37
2022-11-16T12:39:18.773Z,84.49
2022-11-16T12:42:16.276Z,84.53
2022-11-16T12:45:14.529Z,84.68
2022-11-16T12:48:11.992Z,84.75
2022-11-16T12:51:09.854Z,84.72
2022-11-16T12:54:07.317Z,84.80
2022-11-16T12:57:04.816Z,84.79
2022-11-16T13:00:02.267Z,84.69
2022-11-16T13:03:00.220Z,84.65
2022-11-16T13:05:57.682Z,84.52
2022-11-16T13:08:55.280Z,84.51
2022-11-16T13:11:52.732Z,84.20
2022-11-16T13:14:51.703Z,84.33
2022-11-16T13:17:49.178Z,84.28
2022-11-16T13:20:46.642Z,84.25
2022-11-16T13:23:44.175Z,84.42
2022-11-16T13:26:41.916Z,84.33
2022-11-16T13:29:39.362Z,84.14
2022-11-16T13:32:36.851Z,84.00
2022-11-16T13:35:34.313Z,84.04
2022-11-16T13:38:32.088Z,83.65
2022-11-16T13:41:30.136Z,83.40
2022-11-16T13:44:27.630Z,83.34
2022-11-16T13:47:25.073Z,82.97
2022-11-16T13:50:22.535Z,82.70
2022-11-16T13:54:10.885Z,82.70
2022-11-16T13:56:37.482Z,82.69
2022-11-16T13:59:34.947Z,82.40
2022-11-16T14:02:32.584Z,82.39
2022-11-16T14:05:30.036Z,82.45
2022-11-16T14:08:27.515Z,82.24
2022-11-16T14:11:24.965Z,82.01
2022-11-16T14:14:22.410Z,81.96
2022-11-16T14:17:19.851Z,82.04
2022-11-16T14:20:22.203Z,81.85
2022-11-16T14:23:19.846Z,81.83
2022-11-16T14:26:17.334Z,81.83
2022-11-16T14:29:15.509Z,81.99
2022-11-16T14:32:12.944Z,81.83
2022-11-16T14:35:10.495Z,81.84
2022-11-16T14:38:07.942Z,81.85
2022-11-16T14:41:05.399Z,81.84
2022-11-16T14:44:02.832Z,81.79
2022-11-16T14:47:00.287Z,81.85
2022-11-16T14:49:57.740Z,81.96
2022-11-16T14:52:55.173Z,82.11
2022-11-16T14:55:52.765Z,81.87
2022-11-16T14:58:50.220Z,81.98
2022-11-16T15:01:47.693Z,82.20
2022-11-16T15:04:45.184Z,82.09
2022-11-16T15:07:42.716Z,82.16
2022-11-16T15:10:40.196Z,82.14
2022-11-16T15:13:37.871Z,82.32
2022-11-16T15:16:35.331Z,82.32
2022-11-16T15:19:33.256Z,82.66
2022-11-16T15:22:30.754Z,82.76
2022-11-16T15:25:28.206Z,82.74
2022-11-16T15:28:26.576Z,82.95
2022-11-16T15:31:24.285Z,83.19
2022-11-16T15:34:24.888Z,83.31
2022-11-16T15:37:22.356Z,83.41
2022-11-16T15:40:19.805Z,83.57
2022-11-16T15:43:18.149Z,83.73
2022-11-16T15:46:15.626Z,83.95
2022-11-16T15:49:13.074Z,84.06
2022-11-16T15:52:10.816Z,84.12
2022-11-16T15:55:08.256Z,84.26
2022-11-16T15:58:07.364Z,84.19
2022-11-16T16:01:04.956Z,84.18
2022-11-16T16:04:02.447Z,84.35
2022-11-16T16:06:59.992Z,84.48
2022-11-16T16:09:59.636Z,84.55
2022-11-16T16:12:57.109Z,84.63
2022-11-16T16:15:56.975Z,84.67
2022-11-16T16:18:54.454Z,84.81
2022-11-16T16:21:53.775Z,84.86
2022-11-16T16:24:51.228Z,84.89
2022-11-16T16:27:48.941Z,84.95
2022-11-16T16:30:46.452Z,85.04
2022-11-16T16:33:44.511Z,85.01
2022-11-16T16:36:42.391Z,85.01
2022-11-16T16:39:40.256Z,85.09
2022-11-16T16:42:37.711Z,85.20
2022-11-16T16:45:35.547Z,85.24
2022-11-16T16:48:33.460Z,85.23
2022-11-16T16:51:30.900Z,85.25
2022-11-16T16:54:29.080Z,85.23
2022-11-16T16:57:27.007Z,85.27
2022-11-16T17:00:25.236Z,85.28
2022-11-16T17:03:24.264Z,85.34
2022-11-16T17:06:21.895Z,85.40
2022-11-16T17:09:19.444Z,85.45
2022-11-16T17:12:17.893Z,85.44
2022-11-16T17:15:19.378Z,85.37
2022-11-16T17:18:18.275Z,85.42
2022-11-16T17:21:16.860Z,85.41
2022-11-16T17:24:15.392Z,85.49
2022-11-16T17:27:14.302Z,85.51
2022-11-16T17:30:12.415Z,85.56
2022-11-16T17:33:10.536Z,85.65
2022-11-16T17:36:10.833Z,85.59
2022-11-16T17:39:08.605Z,85.59
2022-11-16T17:42:06.103Z,85.59
2022-11-16T17:45:05.678Z,85.66
2022-11-16T17:48:04.130Z,85.63
2022-11-16T17:51:02.711Z,85.77
2022-11-16T17:54:00.774Z,85.83
2022-11-16T17:56:59.201Z,85.77
2022-11-16T17:59:57.371Z,85.70
2022-11-16T18:02:55.513Z,85.79
2022-11-16T18:05:54.003Z,85.82
2022-11-16T18:08:52.390Z,85.82
2022-11-16T18:11:50.975Z,85.87
2022-11-16T18:15:13.373Z,85.93
2022-11-16T18:18:07.923Z,85.85
2022-11-16T18:21:06.388Z,85.87
2022-11-16T18:24:05.419Z,85.74
2022-11-16T18:27:04.075Z,85.57
2022-11-16T18:30:02.558Z,85.46
2022-11-16T18:33:00.873Z,85.53
2022-11-16T18:36:01.475Z,85.59
2022-11-16T18:38:59.932Z,85.46
2022-11-16T18:41:58.389Z,85.37
2022-11-16T18:44:57.427Z,85.39
2022-11-16T18:47:56.081Z,85.39
2022-11-16T18:50:54.813Z,85.31
2022-11-16T18:53:52.951Z,85.28
2022-11-16T18:56:53.294Z,85.42
2022-11-16T18:59:51.380Z,85.55
2022-11-16T19:02:49.891Z,85.61
2022-11-16T19:05:48.370Z,85.67
2022-11-16T19:08:50.506Z,85.74
2022-11-16T19:11:52.546Z,85.74
2022-11-16T19:14:52.510Z,85.57
2022-11-16T19:18:19.861Z,85.56
2022-11-16T19:21:12.279Z,85.51
2022-11-16T19:27:24.069Z,85.69
2022-11-16T19:30:23.415Z,85.74
2022-11-16T19:33:22.824Z,85.68
2022-11-16T19:36:21.050Z,85.65
2022-11-16T19:39:19.123Z,85.73
2022-11-16T19:42:17.654Z,85.77
2022-11-16T19:45:16.340Z,85.73
2022-11-16T19:48:14.925Z,85.69
2022-11-16T19:51:13.026Z,85.52
2022-11-16T19:54:16.089Z,85.57
2022-11-16T19:57:16.260Z,85.57
2022-11-16T20:00:15.442Z,85.57
2022-11-16T20:03:14.405Z,85.59
2022-11-16T20:06:12.923Z,85.62
2022-11-16T20:09:12.703Z,85.59
2022-11-16T20:12:10.708Z,85.62
2022-11-16T20:15:09.360Z,85.62
2022-11-16T20:18:07.735Z,85.67
2022-11-16T20:21:07.969Z,85.63
2022-11-16T20:24:07.406Z,85.66
2022-11-16T20:27:06.469Z,85.67
2022-11-16T20:30:09.298Z,85.62
2022-11-16T20:33:08.151Z,85.61
2022-11-16T20:36:06.222Z,85.58
2022-11-16T20:39:04.398Z,85.62
2022-11-16T20:42:02.987Z,85.76
2022-11-16T20:45:02.693Z,85.71
2022-11-16T20:48:02.914Z,85.77
2022-11-16T20:51:00.988Z,85.69
2022-11-16T20:54:00.275Z,85.67
2022-11-16T20:57:00.206Z,85.65
2022-11-16T20:59:57.823Z,85.67
2022-11-16T21:02:56.359Z,85.69
2022-11-16T21:05:54.844Z,85.82
2022-11-16T21:08:52.927Z,85.85
2022-11-16T21:12:08.096Z,85.89
2022-11-16T21:15:05.562Z,85.92
2022-11-16T21:18:03.041Z,85.96
2022-11-16T21:21:00.755Z,85.98
2022-11-16T21:23:58.281Z,86.01
2022-11-16T21:26:55.726Z,85.95
2022-11-16T21:29:53.182Z,86.02
2022-11-16T21:32:50.722Z,86.09
2022-11-16T21:35:48.205Z,86.12
2022-11-16T21:38:45.666Z,86.07
2022-11-16T21:41:46.176Z,86.11
2022-11-16T21:44:43.636Z,86.14
2022-11-16T21:47:41.107Z,86.11
2022-11-16T21:50:38.552Z,86.08
2022-11-16T21:53:37.646Z,86.04
2022-11-16T21:56:35.356Z,86.09
2022-11-16T21:59:32.853Z,86.11
2022-11-16T22:02:30.304Z,86.14
2022-11-16T22:05:45.692Z,86.15
2022-11-16T22:08:43.210Z,86.17
2022-11-16T22:11:40.655Z,86.22
2022-11-16T22:14:38.147Z,86.21
2022-11-16T22:17:35.600Z,86.19
2022-11-16T22:20:33.055Z,86.20
2022-11-16T22:23:30.512Z,86.20
2022-11-16T22:26:28.015Z,86.15
2022-11-16T22:29:25.490Z,86.15
2022-11-16T22:32:22.944Z,86.20
2022-11-16T22:35:20.395Z,86.16
2022-11-16T22:38:17.847Z,86.10
2022-11-16T22:41:15.306Z,86.13
2022-11-16T22:44:12.744Z,86.09
2022-11-16T22:47:10.195Z,86.05
2022-11-16T22:50:07.653Z,86.05
2022-11-16T22:53:05.110Z,86.12
2022-11-16T22:56:02.594Z,86.11
2022-11-16T22:59:00.824Z,86.13
2022-11-16T23:02:02.914Z,86.24
2022-11-16T23:05:00.379Z,86.19
2022-11-16T23:07:58.282Z,86.07
2022-11-16T23:11:09.608Z,86.07
2022-11-16T23:14:24.659Z,86.05
2022-11-16T23:17:22.129Z,86.16
2022-11-16T23:20:37.153Z,86.16
2022-11-16T23:23:52.998Z,86.24
2022-11-16T23:27:08.241Z,86.27
2022-11-16T23:30:10.950Z,86.25
2022-11-16T23:33:10.081Z,86.17
2022-11-16T23:36:07.885Z,86.15
2022-11-16T23:39:05.358Z,86.17
2022-11-16T23:42:20.929Z,86.18
2022-11-16T23:45:18.619Z,86.15
2022-11-16T23:48:16.070Z,86.14
2022-11-16T23:51:13.521Z,86.06
2022-11-16T23:54:10.983Z,85.98
2022-11-16T23:57:08.465Z,85.92
